Terminal Aerodrome Forecast
Issued by NWS

Home | Current Version | Previous Version | Text Only | Print | Product List | Glossary On
Versions: 1 2 3 4 5 6 7 8 9 10 11 12 13 14 15 16 17 18 19
000
FTAK31 PAJN 232003 AAA
TAFASI
TAF AMD
PASI 232003Z 2320/2418 30011KT P6SM SCT025 BKN035
      TEMPO 2320/2323 BKN025
     FM232300 30020G28KT P6SM SCT020 BKN030
     FM240800 29012KT P6SM OVC025=

USA.gov is the U.S. government's official web portal to all federal, state and local government web resources and services.